Clayton, New Mexico
Current Conditions -  °F | °C
As of 7:55 PM on Thursday 27 Nov 2014 (Local Time) from KCAO Reporting Station
Clear Clear  
Wind Chill: 51°   Ceiling: Unl
Heat Index: 51°   Visibility: 10mi
Dew Point: 27°   Wind: 17mph
Humidity: 39%   Direction: 260°W
Pressure: 30.18"   Gusts: NA
Location:  36.45°N, 103.18°W
Report Text: KCAO 280255Z AUTO 26015KT 10SM CLR 11/M03 A3018 RMK AO2 SLP211 T01061028 58005
Loading
Personal Weather Stations






























Interactive Weather Map New forecast layout! Learn more

10-Day Weather Forecast

Advertisements
Track Severe Weather on mobile